23 maggio 2022

Tempo Codice Tempo metereologico Temp. Vista Nuvole Vento METAR/SPECI
09:30
M
17 °C 9 km 2.600 ft 270°   270° 10 kt METAR LFBC 230730Z AUTO 27010KT 230V300 9000 SCT020 BKN026 BKN031 17/13 Q1010 TEMPO 4900 -RA BKN012 BKN020
09:00
V
17 °C 8 km 5.000 ft 270°   270° 11 kt METAR LFBC 230700Z AUTO 27011KT 230V300 8000 FEW019 OVC050 17/13 Q1010 TEMPO 4900 -RA BKN012 BKN020
08:30
V
17 °C 9 km 4.400 ft 270°   270° 10 kt METAR LFBC 230630Z AUTO 27010KT 240V310 9000 SCT017 SCT022 OVC044 17/13 Q1010 TEMPO 4900 -RA BKN012 BKN020
08:00
M
17 °C 10 km+ 1.500 ft 270°   270° 9 kt METAR LFBC 230600Z AUTO 27009KT 230V300 9999 BKN015 BKN041 BKN047 17/14 Q1009 TEMPO 4900 -RA BKN012 BKN020
07:30
V
16 °C 8 km 4.100 ft 270°   270° 10 kt METAR LFBC 230530Z AUTO 27010KT 230V310 8000 FEW018 BKN041 BKN060 16/13 Q1009 TEMPO 4900 -RA BKN012 BKN020
07:00
M
16 °C 8 km 1.500 ft 260°   260° 10 kt METAR LFBC 230500Z AUTO 26010KT 220V280 8000 BKN015 BKN020 BKN044 16/14 Q1009
06:30
M
17 °C 8 km 1.900 ft 260°   260° 9 21 kt METAR LFBC 230430Z AUTO 26009G21KT 230V300 8000 SCT012 BKN019 BKN042 17/15 Q1009
06:00
M
17 °C 9 km 1.400 ft 260°   260° 8 kt METAR LFBC 230400Z AUTO 26008KT 220V280 9000 BKN014 OVC020 17/15 Q1009
05:30
M
17 °C 8 km 1.500 ft 250°   250° 8 kt METAR LFBC 230330Z AUTO 25008KT 220V280 8000 BKN015 OVC023 17/15 Q1009
05:00
M
17 °C 8 km 2.200 ft 260°   260° 9 kt METAR LFBC 230300Z AUTO 26009KT 230V290 8000 FEW013 OVC022 17/15 Q1009
04:30
M
17 °C 8 km 1.700 ft 260°   260° 10 kt METAR LFBC 230230Z AUTO 26010KT 230V290 8000 BKN017 OVC023 17/15 Q1009
04:00
M
17 °C 7 km 1.300 ft 260°   260° 12 kt METAR LFBC 230200Z AUTO 26012KT 7000 BKN013 OVC020 17/15 Q1009
03:30
M
17 °C 7 km 1.400 ft 250°   250° 11 kt METAR LFBC 230130Z AUTO 25011KT 220V280 7000 OVC014 17/16 Q1009
03:00
M
17 °C 8 km 1.300 ft 250°   250° 12 kt METAR LFBC 230100Z AUTO 25012KT 220V280 8000 FEW008 OVC013 17/16 Q1009
02:30
I
17 °C 8 km 800 ft 250°   250° 11 kt METAR LFBC 230030Z AUTO 25011KT 8000 BKN008 BKN012 OVC017 17/16 Q1009
02:00
I
18 °C 7 km 700 ft 250°   250° 9 kt METAR LFBC 230000Z AUTO 25009KT 220V280 7000 OVC007/// ///CB 18/17 Q1009
01:30
I
18 °C 9 km 700 ft 250°   250° 8 kt METAR LFBC 222330Z AUTO 25008KT 210V300 9000 VCTS BKN007/// BKN054/// OVC092/// //////CB 18/17 Q1009
01:00
I
18 °C 7 km 800 ft 230°   230° 10 kt METAR LFBC 222300Z AUTO 23010KT 7000 VCTS OVC008/// //////CB 18/17 Q1010
00:30
I
18 °C 7 km 800 ft 250°   250° 11 kt METAR LFBC 222230Z AUTO 25011KT 210V280 7000 OVC008/// ///CB 18/17 Q1010
00:00
I
18 °C 7 km 700 ft 240°   240° 11 kt METAR LFBC 222200Z AUTO 24011KT 7000 OVC007/// //////CB 18/17 Q1009

22 maggio 2022

Tempo Codice Tempo metereologico Temp. Vista Nuvole Vento METAR/SPECI
23:30
V
18 °C 10 km+ 9.200 ft 240°   240° 7 kt METAR LFBC 222130Z AUTO 24007KT 210V270 9999 VCTS FEW007/// BKN092/// BKN160/// //////CB 18/17 Q1009
23:00
M
18 °C 7 km 8.800 ft 280°   280° 12 kt METAR LFBC 222100Z AUTO 28012KT 250V310 7000 TS FEW011/// SCT062/// BKN088/// //////CB 18/17 Q1009
22:30
V
19 °C 8 km 7.200 ft 250°   250° 11 23 kt METAR LFBC 222030Z AUTO 25011G23KT 200V270 8000 VCTS FEW010/// SCT044/// BKN072/// //////CB 19/16 Q1010
22:00
V
20 °C 8 km 12.000 ft 240°   240° 8 kt METAR LFBC 222000Z AUTO 24008KT 210V270 8000 FEW014 BKN120 20/17 Q1009
21:30
V
20 °C 10 km+ - 230°   230° 7 kt METAR LFBC 221930Z AUTO 23007KT 210V270 CAVOK 20/17 Q1008
21:00
V
21 °C 10 km+ - 280°   280° 6 kt METAR LFBC 221900Z AUTO 28006KT 240V320 CAVOK 21/17 Q1007
20:30
V
21 °C 8 km - 300°   300° 12 kt METAR LFBC 221830Z AUTO 30012KT 270V330 8000 NSC 21/17 Q1007
20:00
V
27 °C 10 km+ - 260°   260° 5 kt METAR LFBC 221800Z AUTO 26005KT 220V300 CAVOK 27/17 Q1006
19:30
V
27 °C 10 km+ - 250°   250° 5 kt METAR LFBC 221730Z AUTO 25005KT 210V290 CAVOK 27/17 Q1006
19:00
V
27 °C 10 km+ - 290°   290° 5 kt METAR LFBC 221700Z AUTO 29005KT 260V320 CAVOK 27/18 Q1006
18:30
V
27 °C 10 km+ - 310°   310° 6 kt METAR LFBC 221630Z AUTO 31006KT 280V340 CAVOK 27/18 Q1006
18:00
V
26 °C 10 km+ - 300°   300° 7 kt METAR LFBC 221600Z AUTO 30007KT CAVOK 26/18 Q1006
17:30
V
27 °C 10 km+ - 300°   300° 6 kt METAR LFBC 221530Z AUTO 30006KT 260V330 CAVOK 27/18 Q1006
17:00
V
30 °C 10 km+ - 280°   280° 5 kt METAR LFBC 221500Z AUTO 28005KT 250V320 CAVOK 30/19 Q1006
16:30
V
29 °C 10 km+ - 300°   300° 7 kt METAR LFBC 221430Z AUTO 30007KT 260V330 CAVOK 29/19 Q1006
16:00
V
31 °C 10 km+ - 280°   280° 5 kt METAR LFBC 221400Z AUTO 28005KT 250V320 CAVOK 31/20 Q1006
15:30
V
31 °C 10 km+ - 220°   220° 4 kt METAR LFBC 221330Z AUTO 22004KT 190V250 CAVOK 31/20 Q1007
15:00
V
32 °C 10 km+ - 170°   170° 8 kt METAR LFBC 221300Z AUTO 17008KT CAVOK 32/20 Q1007
14:30
V
31 °C 10 km+ - 170°   170° 8 kt METAR LFBC 221230Z AUTO 17008KT 090V220 CAVOK 31/20 Q1007
14:00
V
31 °C 10 km+ - 130°   130° 9 kt METAR LFBC 221200Z AUTO 13009KT CAVOK 31/20 Q1008
13:30
V
31 °C 10 km+ - 120°   120° 9 kt METAR LFBC 221130Z AUTO 12009KT 080V150 CAVOK 31/20 Q1008
13:00
V
29 °C 10 km+ - 110°   110° 8 kt METAR LFBC 221100Z AUTO 11008KT 080V140 CAVOK 29/20 Q1008
12:30
V
26 °C 10 km+ - 150°   150° 3 kt METAR LFBC 221030Z AUTO 15003KT 070V220 CAVOK 26/20 Q1009
12:00
V
25 °C 10 km+ - 190°   190° 4 kt METAR LFBC 221000Z AUTO 19004KT 150V230 CAVOK 25/19 Q1010
11:30
V
24 °C 10 km+ - 190°   190° 4 kt METAR LFBC 220930Z AUTO 19004KT 100V230 CAVOK 24/19 Q1010
11:00
V
23 °C 10 km+ - 220°   220° 4 kt METAR LFBC 220900Z AUTO 22004KT 170V260 CAVOK 23/18 Q1010
10:30
V
22 °C 10 km+ - 200°   200° 5 kt METAR LFBC 220830Z AUTO 20005KT 170V240 CAVOK 22/18 Q1010
10:00
V
22 °C 10 km+ - 220°   220° 5 kt METAR LFBC 220800Z AUTO 22005KT 200V260 CAVOK 22/18 Q1010
09:30
V
21 °C 10 km+ - 210°   210° 9 kt METAR LFBC 220730Z AUTO 21009KT CAVOK 21/18 Q1011
09:00
V
20 °C 10 km+ - 200°   200° 8 kt METAR LFBC 220700Z AUTO 20008KT CAVOK 20/18 Q1011
08:30
V
20 °C 10 km+ - 190°   190° 8 kt METAR LFBC 220630Z AUTO 19008KT CAVOK 20/18 Q1011
08:00
V
20 °C 10 km+ - 190°   190° 6 kt METAR LFBC 220600Z AUTO 19006KT CAVOK 20/18 Q1011
07:30
V
19 °C 10 km+ - 180°   180° 4 kt METAR LFBC 220530Z AUTO 18004KT CAVOK 19/18 Q1011
07:00
V
19 °C 10 km+ - 110°   110° 4 kt METAR LFBC 220500Z AUTO 11004KT 050V160 CAVOK 19/17 Q1011
06:30
V
20 °C 10 km+ - 030°   030° 5 kt METAR LFBC 220430Z AUTO 03005KT CAVOK 20/17 Q1011
06:00
V
20 °C 10 km+ - 010°   010° 5 kt METAR LFBC 220400Z AUTO 01005KT 320V060 CAVOK 20/17 Q1012
05:30
V
19 °C 10 km+ 15.000 ft 300°   300° 8 kt METAR LFBC 220330Z AUTO 30008KT 280V340 9999 FEW008 BKN150 BKN170 19/18 Q1013
05:00
V
19 °C 10 km+ - Var   Var 2 kt METAR LFBC 220300Z AUTO VRB02KT CAVOK 19/18 Q1012
04:30
V
20 °C 10 km+ - 230°   230° 4 kt METAR LFBC 220230Z AUTO 23004KT 200V260 CAVOK 20/18 Q1012
04:00
V
20 °C 10 km+ - 210°   210° 7 kt METAR LFBC 220200Z AUTO 21007KT CAVOK 20/19 Q1013
03:30
V
21 °C 10 km+ - 210°   210° 8 kt METAR LFBC 220130Z AUTO 21008KT CAVOK 21/18 Q1013
03:00
V
21 °C 10 km+ - 220°   220° 6 kt METAR LFBC 220100Z AUTO 22006KT CAVOK 21/20 Q1013
02:30
V
21 °C 10 km+ - Var   000° 0 kt METAR LFBC 220030Z AUTO 00000KT CAVOK 21/19 Q1013
02:00
V
22 °C 10 km+ - 030°   030° 4 kt METAR LFBC 220000Z AUTO 03004KT CAVOK 22/20 Q1012
01:30
V
21 °C 10 km+ - 360°   360° 5 kt METAR LFBC 212330Z AUTO 36005KT CAVOK 21/20 Q1013
01:00
V
21 °C 10 km+ - 320°   320° 2 kt METAR LFBC 212300Z AUTO 32002KT CAVOK 21/19 Q1013
00:30
V
22 °C 10 km+ - 050°   050° 2 kt METAR LFBC 212230Z AUTO 05002KT CAVOK 22/19 Q1013
00:00
V
22 °C 10 km+ - Var   Var 2 kt METAR LFBC 212200Z AUTO VRB02KT CAVOK 22/20 Q1014

21 maggio 2022

Tempo Codice Tempo metereologico Temp. Vista Nuvole Vento METAR/SPECI
23:30
V
22 °C 10 km+ - Var   000° 0 kt METAR LFBC 212130Z AUTO 00000KT CAVOK 22/19 Q1014
23:00
V
24 °C 10 km+ - 010°   010° 2 kt METAR LFBC 212100Z AUTO 01002KT CAVOK 24/20 Q1014
22:30
V
24 °C 10 km+ - 010°   010° 3 kt METAR LFBC 212030Z AUTO 01003KT CAVOK 24/20 Q1014
22:00
V
25 °C 10 km+ - 010°   010° 2 kt METAR LFBC 212000Z AUTO 01002KT CAVOK 25/20 Q1014
21:30
V
26 °C 10 km+ - 010°   010° 3 kt METAR LFBC 211930Z AUTO 01003KT CAVOK 26/20 Q1014
21:00
V
26 °C 10 km+ - 350°   350° 4 kt METAR LFBC 211900Z AUTO 35004KT CAVOK 26/19 Q1014
20:30
V
27 °C 10 km+ - 020°   020° 4 kt METAR LFBC 211830Z AUTO 02004KT 350V060 CAVOK 27/19 Q1014
20:00
V
28 °C 10 km+ - 010°   010° 6 kt METAR LFBC 211800Z AUTO 01006KT CAVOK 28/19 Q1014
19:30
V
29 °C 10 km+ - 350°   350° 6 kt METAR LFBC 211730Z AUTO 35006KT 310V010 CAVOK 29/19 Q1014
19:00
V
31 °C 10 km+ - 030°   030° 6 kt METAR LFBC 211700Z AUTO 03006KT CAVOK 31/19 Q1014
18:30
V
32 °C 10 km+ - 020°   020° 7 kt METAR LFBC 211630Z AUTO 02007KT CAVOK 32/18 Q1014
18:00
V
32 °C 10 km+ - 080°   080° 6 kt METAR LFBC 211600Z AUTO 08006KT 010V120 CAVOK 32/18 Q1014
17:30
V
32 °C 10 km+ - Var   000° 0 kt METAR LFBC 211530Z AUTO 00000KT CAVOK 32/16 Q1015
17:00
V
33 °C 10 km+ - 100°   100° 4 kt METAR LFBC 211500Z AUTO 10004KT 030V190 CAVOK 33/17 Q1015
16:30
V
33 °C 10 km+ - 100°   100° 5 kt METAR LFBC 211430Z AUTO 10005KT 060V140 CAVOK 33/18 Q1015
16:00
V
32 °C 10 km+ - 100°   100° 6 kt METAR LFBC 211400Z AUTO 10006KT 030V150 CAVOK 32/17 Q1016
15:30
V
31 °C 10 km+ - 050°   050° 5 kt METAR LFBC 211330Z AUTO 05005KT 020V120 CAVOK 31/18 Q1016
15:00
V
31 °C 10 km+ - 080°   080° 4 kt METAR LFBC 211300Z AUTO 08004KT 350V150 CAVOK 31/18 Q1017
14:30
V
30 °C 10 km+ - 100°   100° 5 kt METAR LFBC 211230Z AUTO 10005KT 060V160 CAVOK 30/18 Q1017
14:00
V
30 °C 10 km+ - 090°   090° 7 kt METAR LFBC 211200Z AUTO 09007KT 030V140 CAVOK 30/18 Q1017
13:30
V
28 °C 10 km+ - 080°   080° 7 kt METAR LFBC 211130Z AUTO 08007KT 020V120 CAVOK 28/18 Q1017
13:00
V
28 °C 10 km+ - 070°   070° 7 kt METAR LFBC 211100Z AUTO 07007KT 030V110 CAVOK 28/18 Q1018
12:30
V
26 °C 10 km+ - 040°   040° 7 kt METAR LFBC 211030Z AUTO 04007KT 010V080 CAVOK 26/17 Q1018
12:00
V
26 °C 10 km+ - 060°   060° 9 kt METAR LFBC 211000Z AUTO 06009KT CAVOK 26/17 Q1018
11:30
V
26 °C 10 km+ - 060°   060° 7 kt METAR LFBC 210930Z AUTO 06007KT 020V120 CAVOK 26/17 Q1019
11:00
V
24 °C 10 km+ - 060°   060° 6 kt METAR LFBC 210900Z AUTO 06006KT 020V100 CAVOK 24/16 Q1019
10:30
V
23 °C 10 km+ - 050°   050° 6 kt METAR LFBC 210830Z AUTO 05006KT 020V090 CAVOK 23/15 Q1019
10:00
V
21 °C 10 km+ - 050°   050° 5 kt METAR LFBC 210800Z AUTO 05005KT 010V070 CAVOK 21/14 Q1019
09:30
V
20 °C 10 km+ - 050°   050° 4 kt METAR LFBC 210730Z AUTO 05004KT 020V090 CAVOK 20/14 Q1019
09:00
V
18 °C 10 km+ - 030°   030° 5 kt METAR LFBC 210700Z AUTO 03005KT CAVOK 18/13 Q1020
Dati più vecchi

Scarica la nostra applicazione

Facile accesso a tutte le previsioni dell'aviazione sul tuo cellulare e tablet.
Con molte caratteristiche non disponibili sul sito web, come il supporto offline e una lista personale di aeroporti.

Noi e le terze parti seguiamo il tuo comportamento in internet sul nostro sito web con i cookie. Se continui, riteniamo che tu sia d'accordo con la nostra politica sui cookie. Per saperne di più